Aérodrome :
LOGIN :

S'inscrire | Disclaimer

   EN    FR    IT 

 










Légende :    VFR   VFR Marginal   IFR   IFR Intensif   IFR Très Intensif
Visi : 
Plafond : 
>= 8 km
>= 3000ft
5 à 8 km
1000 à 3000 ft
1500m à 5 km
500 à 1000 ft
800 à 1500m
200 à 500 ft
< 800m
< 200 ft
Symboles :   Orages  Brouillard  Fortes neiges  Fortes précipitations  Vent > 20 kt
SIGMETs :   Divers  Orages  Givrage  Turbulence  Onde Orograph.  Cendres Volcan.






- Altitude de l'aérodrome : 1306 ft
- Code IATA : ACH


LSZR - Alten Rhein

DERNIER METAR :
  • 150650Z AUTO VRB02KT 9999 FEW100 03/02 Q1007

METARs EXPIRÉS :
  • 150620Z AUTO 09004KT 9999 FEW085 OVC100 04/01 Q1007
  • 150550Z AUTO 09005KT 9999 BKN095 03/01 Q1007
  • 150520Z AUTO 09003KT 9999 NSC 02/01 Q1006
  • 150450Z AUTO VRB03KT 9999 FEW090 04/03 Q1006
  • 150420Z AUTO 14003KT 9999 FEW085 OVC095 06/04 Q1006

TAF TAF LSZR
Valide du 15 à 06h jusqu'au 15 à 15h UTC


150525Z 1506/1515 26008KT 9999 BKN080
PROB40 1512/1515 CAVOK
ATIS : +41 71 858 51 66



MET'MAP, la Météo Aéronautique d'un coup d'oeil ! - Copyright ORBIFLY Décembre 2007 - Disclaimer

ORBIFLY MET'MAP TEAM :

Programmation & Développement : Alexandra Zaïnal
Sur une idée originale de : Baudouin d'Aumeries
Assistance à la programmation : Marc-Olivier Méhu
Soutien technique & logistique : Manuel Goepfert

Contact : metmap@orbifly.com




SOURCES & CREDITS :

   NOAA